Aviation Digital Data Service (ADDS)

Output produced by METARs form (1855 UTC 27 September 2016)
found at http://aviationweather.gov/adds/metars/
 
KBAF 271739Z 2718/2818 VRB03KT P6SM SCT025 BKN250 
     FM280000 00000KT P6SM SCT050 
     FM280900 VRB03KT P6SM BKN008 
     FM281300 03009KT P6SM BKN015 
     FM281600 03010KT P6SM BKN025